< < Back
Terminal Aerodrome Forecast


Current Version              Previous Versions:   1  2  3  4  5  6  7  8  9  

Terminal Aerodrome Forecast

781
FTUS44 KBMX 241700
TAFTCL
TAF
KTCL 241721Z 2418/2518 34007KT P6SM SKC
     FM250100 00000KT P6SM SKC=

Latest METAR

729
SAUS70 KWBC 250700 RRH
MTRTCL
METAR KTCL 250653Z AUTO 00000KT 10SM CLR 09/08 A3009 RMK AO2 SLP189
T00890078


USA.gov is the U.S. government's official web portal to all federal, state and local government web resources and services.